createdAt,value
2017-12-30T00:02:51.095Z,82.25
2017-12-30T00:05:21.969Z,81.88
2017-12-30T00:07:51.363Z,82.26
2017-12-30T00:10:20.233Z,82.85
2017-12-30T00:12:49.263Z,82.63
2017-12-30T00:15:21.424Z,82.61
2017-12-30T00:17:49.112Z,82.60
2017-12-30T00:20:18.402Z,82.22
2017-12-30T00:22:48.368Z,81.44
2017-12-30T00:25:16.721Z,82.34
2017-12-30T00:27:49.873Z,81.94
2017-12-30T00:30:21.399Z,80.69
2017-12-30T00:32:50.190Z,80.70
2017-12-30T00:35:21.551Z,81.54
2017-12-30T00:37:56.078Z,83.03
2017-12-30T00:40:23.800Z,85.25
2017-12-30T00:42:52.323Z,86.19
2017-12-30T00:45:21.219Z,85.06
2017-12-30T00:47:49.774Z,84.60
2017-12-30T00:50:17.503Z,83.95
2017-12-30T00:52:47.294Z,83.82
2017-12-30T00:55:15.054Z,82.89
2017-12-30T00:57:43.517Z,83.13
2017-12-30T01:00:11.234Z,83.60
2017-12-30T01:02:39.039Z,84.53
2017-12-30T01:05:10.474Z,84.15
2017-12-30T01:07:42.695Z,84.56
2017-12-30T01:10:11.250Z,85.32
2017-12-30T01:12:38.929Z,86.07
2017-12-30T01:15:06.642Z,85.94
2017-12-30T01:17:41.761Z,85.50
2017-12-30T01:20:09.463Z,85.39
2017-12-30T01:22:38.352Z,85.27
2017-12-30T01:25:06.010Z,86.05
2017-12-30T01:27:33.675Z,87.82
2017-12-30T01:30:01.396Z,86.73
2017-12-30T01:32:29.078Z,85.53
2017-12-30T01:34:56.761Z,85.79
2017-12-30T01:37:24.563Z,85.03
2017-12-30T01:39:52.868Z,84.47
2017-12-30T01:42:20.584Z,84.92
2017-12-30T01:44:49.092Z,86.13
2017-12-30T01:47:17.650Z,87.08
2017-12-30T01:49:45.326Z,86.73
2017-12-30T01:52:13.313Z,85.98
2017-12-30T01:54:41.078Z,85.62
2017-12-30T01:57:09.973Z,85.59
2017-12-30T01:59:37.646Z,86.04
2017-12-30T02:02:05.402Z,86.21
2017-12-30T02:04:33.141Z,86.18
2017-12-30T02:07:00.826Z,86.10
2017-12-30T02:09:28.618Z,85.97
2017-12-30T02:11:56.387Z,85.63
2017-12-30T02:14:24.073Z,85.40
2017-12-30T02:16:52.004Z,85.49
2017-12-30T02:19:19.747Z,84.70
2017-12-30T02:21:48.626Z,85.23
2017-12-30T02:24:16.302Z,85.55
2017-12-30T02:26:44.283Z,86.09
2017-12-30T02:29:12.008Z,87.63
2017-12-30T02:31:39.690Z,87.41
2017-12-30T02:34:08.538Z,86.73
2017-12-30T02:36:36.204Z,87.20
2017-12-30T02:39:04.050Z,87.35
2017-12-30T02:41:32.626Z,87.42
2017-12-30T02:44:00.329Z,87.45
2017-12-30T02:46:29.400Z,87.03
2017-12-30T02:48:57.144Z,86.25
2017-12-30T02:51:24.871Z,86.04
2017-12-30T02:53:52.587Z,85.64
2017-12-30T02:56:20.257Z,86.36
2017-12-30T02:58:47.964Z,87.22
2017-12-30T03:01:15.675Z,87.98
2017-12-30T03:03:43.376Z,87.15
2017-12-30T03:06:11.057Z,86.52
2017-12-30T03:08:38.789Z,87.33
2017-12-30T03:11:06.486Z,87.21
2017-12-30T03:13:34.241Z,86.49
2017-12-30T03:16:02.110Z,86.81
2017-12-30T03:18:29.812Z,86.39
2017-12-30T03:20:57.527Z,86.89
2017-12-30T03:23:25.252Z,87.49
2017-12-30T03:25:52.974Z,87.22
2017-12-30T03:28:20.647Z,87.14
2017-12-30T03:30:48.397Z,87.76
2017-12-30T03:33:16.118Z,87.86
2017-12-30T03:35:43.862Z,87.37
2017-12-30T03:38:11.598Z,87.02
2017-12-30T03:40:39.286Z,86.68
2017-12-30T03:43:07.019Z,86.79
2017-12-30T03:45:34.877Z,86.20
2017-12-30T03:48:02.587Z,85.90
2017-12-30T03:50:30.321Z,86.69
2017-12-30T03:52:58.013Z,86.99
2017-12-30T03:55:25.768Z,86.67
2017-12-30T03:57:53.469Z,86.93
2017-12-30T04:00:21.317Z,86.78
2017-12-30T04:02:49.003Z,86.83
2017-12-30T04:05:16.868Z,86.45
2017-12-30T04:07:44.655Z,86.94
2017-12-30T04:10:12.476Z,87.20
2017-12-30T04:12:40.199Z,86.76
2017-12-30T04:15:07.961Z,87.44
2017-12-30T04:17:35.631Z,88.36
2017-12-30T04:20:03.384Z,88.10
2017-12-30T04:22:31.076Z,87.63
2017-12-30T04:24:58.844Z,88.97
2017-12-30T04:27:26.510Z,88.43
2017-12-30T04:29:54.255Z,87.45
2017-12-30T04:32:21.932Z,87.48
2017-12-30T04:34:49.669Z,87.44
2017-12-30T04:37:17.337Z,87.64
2017-12-30T04:39:45.078Z,86.65
2017-12-30T04:42:12.786Z,86.88
2017-12-30T04:44:40.542Z,87.42
2017-12-30T04:47:08.216Z,87.38
2017-12-30T04:49:35.958Z,87.36
2017-12-30T04:52:03.719Z,86.85
2017-12-30T04:54:31.474Z,87.73
2017-12-30T04:56:59.215Z,87.16
2017-12-30T04:59:26.999Z,87.52
2017-12-30T05:01:54.670Z,88.05
2017-12-30T05:04:22.450Z,87.90
2017-12-30T05:06:50.143Z,87.47
2017-12-30T05:09:17.906Z,87.27
2017-12-30T05:11:45.628Z,88.13
2017-12-30T05:14:13.332Z,88.20
2017-12-30T05:16:41.061Z,88.29
2017-12-30T05:19:09.981Z,89.03
2017-12-30T05:21:37.702Z,89.03
2017-12-30T05:24:08.181Z,88.53
2017-12-30T05:26:37.125Z,89.24
2017-12-30T05:29:04.819Z,89.33
2017-12-30T05:31:32.579Z,89.51
2017-12-30T05:34:00.296Z,89.25
2017-12-30T05:36:28.004Z,89.03
2017-12-30T05:38:56.625Z,89.23
2017-12-30T05:41:24.285Z,89.67
2017-12-30T05:43:52.030Z,89.32
2017-12-30T05:46:19.758Z,89.96
2017-12-30T05:48:47.440Z,89.92
2017-12-30T05:51:15.179Z,89.70
2017-12-30T05:53:42.855Z,89.75
2017-12-30T05:56:11.532Z,89.87
2017-12-30T05:58:39.262Z,89.41
2017-12-30T06:01:06.974Z,89.48
2017-12-30T06:03:34.739Z,89.14
2017-12-30T06:06:02.476Z,89.60
2017-12-30T06:08:30.146Z,89.45
2017-12-30T06:10:57.894Z,89.11
2017-12-30T06:13:25.575Z,89.61
2017-12-30T06:15:53.292Z,88.18
2017-12-30T06:18:21.046Z,86.71
2017-12-30T06:20:48.772Z,87.29
2017-12-30T06:23:16.453Z,88.89
2017-12-30T06:25:44.214Z,89.64
2017-12-30T06:28:12.774Z,89.46
2017-12-30T06:30:40.499Z,89.47
2017-12-30T06:33:08.180Z,89.87
2017-12-30T06:35:35.926Z,89.80
2017-12-30T06:38:03.642Z,89.69
2017-12-30T06:40:31.404Z,89.86
2017-12-30T06:42:59.115Z,89.70
2017-12-30T06:45:26.924Z,89.66
2017-12-30T06:47:54.712Z,89.83
2017-12-30T06:50:22.465Z,89.31
2017-12-30T06:52:50.177Z,89.04
2017-12-30T06:55:17.985Z,89.21
2017-12-30T06:57:45.667Z,88.13
2017-12-30T07:00:13.420Z,87.97
2017-12-30T07:02:41.235Z,87.93
2017-12-30T07:05:09.060Z,88.19
2017-12-30T07:07:36.854Z,88.71
2017-12-30T07:10:04.597Z,88.97
2017-12-30T07:12:32.368Z,89.30
2017-12-30T07:15:00.166Z,89.32
2017-12-30T07:17:27.858Z,89.32
2017-12-30T07:19:55.573Z,89.11
2017-12-30T07:22:23.332Z,88.87
2017-12-30T07:24:51.049Z,88.78
2017-12-30T07:27:18.874Z,88.84
2017-12-30T07:29:46.663Z,88.36
2017-12-30T07:32:14.493Z,87.77
2017-12-30T07:34:42.285Z,87.64
2017-12-30T07:37:10.058Z,86.68
2017-12-30T07:39:37.787Z,86.07
2017-12-30T07:42:05.524Z,86.00
2017-12-30T07:44:33.405Z,85.95
2017-12-30T07:47:01.169Z,85.17
2017-12-30T07:49:29.217Z,83.90
2017-12-30T07:51:57.113Z,79.32
2017-12-30T07:54:24.877Z,68.37
2017-12-30T07:56:52.764Z,60.82
2017-12-30T07:59:20.480Z,56.71
2017-12-30T08:01:48.283Z,53.94
2017-12-30T08:04:16.008Z,52.17
2017-12-30T08:06:43.758Z,51.04
2017-12-30T08:09:11.468Z,54.96
2017-12-30T08:11:39.293Z,49.51
2017-12-30T08:14:07.004Z,48.83
2017-12-30T08:16:35.168Z,51.92
2017-12-30T08:19:04.281Z,54.36
2017-12-30T08:21:32.114Z,57.24
2017-12-30T08:24:00.603Z,60.99
2017-12-30T08:26:28.285Z,63.87
2017-12-30T08:28:56.026Z,65.73
2017-12-30T08:31:24.593Z,66.14
2017-12-30T08:33:52.328Z,65.19
2017-12-30T08:36:21.096Z,64.37
2017-12-30T08:38:48.783Z,64.18
2017-12-30T08:41:17.577Z,60.10
2017-12-30T08:43:47.124Z,58.90
2017-12-30T08:46:15.646Z,60.10
2017-12-30T08:48:43.438Z,62.03
2017-12-30T08:51:11.416Z,66.88
2017-12-30T08:53:39.174Z,68.87
2017-12-30T08:56:06.934Z,69.65
2017-12-30T08:58:36.389Z,69.44
2017-12-30T09:01:04.126Z,68.88
2017-12-30T09:03:31.930Z,67.84
2017-12-30T09:05:59.657Z,67.98
2017-12-30T09:08:27.416Z,69.17
2017-12-30T09:10:55.106Z,66.87
2017-12-30T09:13:23.260Z,67.87
2017-12-30T09:15:51.020Z,68.67
2017-12-30T09:18:18.948Z,68.64
2017-12-30T09:20:46.749Z,68.07
2017-12-30T09:23:14.561Z,67.03
2017-12-30T09:25:42.383Z,67.35
2017-12-30T09:28:10.168Z,68.02
2017-12-30T09:30:38.669Z,67.63
2017-12-30T09:33:06.550Z,67.13
2017-12-30T09:35:35.041Z,69.31
2017-12-30T09:38:02.858Z,69.83
2017-12-30T09:40:30.677Z,70.23
2017-12-30T09:42:58.425Z,68.90
2017-12-30T09:45:26.181Z,68.65
2017-12-30T09:47:54.316Z,68.30
2017-12-30T09:50:22.588Z,66.05
2017-12-30T09:52:50.450Z,61.96
2017-12-30T09:55:18.254Z,60.34
2017-12-30T09:57:46.886Z,56.91
2017-12-30T10:00:14.671Z,61.14
2017-12-30T10:02:42.540Z,60.31
2017-12-30T10:05:10.336Z,62.38
2017-12-30T10:07:38.070Z,61.42
2017-12-30T10:10:05.858Z,64.76
2017-12-30T10:12:33.589Z,65.02
2017-12-30T10:15:01.447Z,65.17
2017-12-30T10:17:29.342Z,68.17
2017-12-30T10:19:57.115Z,68.27
2017-12-30T10:22:24.875Z,65.77
2017-12-30T10:24:52.666Z,67.27
2017-12-30T10:27:20.373Z,67.24
2017-12-30T10:29:48.128Z,67.74
2017-12-30T10:32:15.984Z,68.10
2017-12-30T10:34:43.733Z,67.69
2017-12-30T10:37:11.441Z,69.12
2017-12-30T10:39:39.225Z,69.01
2017-12-30T10:42:06.942Z,69.27
2017-12-30T10:44:34.734Z,68.15
2017-12-30T10:47:02.427Z,67.71
2017-12-30T10:49:30.227Z,66.33
2017-12-30T10:51:58.017Z,66.42
2017-12-30T10:54:25.743Z,68.88
2017-12-30T10:56:53.567Z,69.43
2017-12-30T10:59:21.365Z,70.35
2017-12-30T11:01:49.112Z,70.68
2017-12-30T11:04:16.859Z,70.89
2017-12-30T11:06:44.573Z,71.12
2017-12-30T11:09:12.330Z,70.27
2017-12-30T11:11:40.079Z,69.68
2017-12-30T11:14:07.766Z,69.47
2017-12-30T11:16:35.520Z,69.19
2017-12-30T11:19:04.083Z,69.17
2017-12-30T11:21:31.930Z,67.92
2017-12-30T11:23:59.715Z,69.31
2017-12-30T11:26:27.479Z,71.25
2017-12-30T11:28:55.303Z,70.67
2017-12-30T11:31:23.102Z,70.14
2017-12-30T11:33:50.798Z,69.10
2017-12-30T11:36:18.845Z,69.07
2017-12-30T11:38:47.336Z,70.73
2017-12-30T11:41:15.181Z,71.30
2017-12-30T11:43:42.955Z,71.70
2017-12-30T11:46:10.955Z,72.40
2017-12-30T11:48:38.694Z,71.62
2017-12-30T11:51:07.618Z,71.42
2017-12-30T11:53:35.320Z,72.08
2017-12-30T11:56:03.110Z,74.33
2017-12-30T11:58:30.815Z,73.37
2017-12-30T12:00:58.580Z,74.26
2017-12-30T12:03:27.416Z,74.98
2017-12-30T12:05:55.135Z,75.80
2017-12-30T12:08:22.911Z,75.32
2017-12-30T12:10:50.729Z,75.48
2017-12-30T12:13:18.518Z,75.17
2017-12-30T12:15:46.345Z,75.22
2017-12-30T12:18:14.064Z,74.04
2017-12-30T12:20:41.805Z,74.29
2017-12-30T12:23:09.560Z,73.61
2017-12-30T12:25:37.418Z,74.37
2017-12-30T12:28:05.177Z,74.22
2017-12-30T12:30:33.037Z,74.42
2017-12-30T12:33:00.768Z,74.91
2017-12-30T12:35:28.598Z,74.75
2017-12-30T12:37:56.695Z,75.19
2017-12-30T12:40:24.464Z,75.20
2017-12-30T12:42:52.247Z,76.81
2017-12-30T12:45:19.975Z,77.11
2017-12-30T12:47:47.727Z,76.52
2017-12-30T12:50:15.482Z,75.33
2017-12-30T12:52:43.590Z,75.16
2017-12-30T12:55:11.642Z,75.54
2017-12-30T12:57:39.341Z,74.57
2017-12-30T13:00:07.130Z,74.01
2017-12-30T13:02:34.915Z,73.83
2017-12-30T13:05:02.690Z,73.89
2017-12-30T13:07:30.400Z,73.94
2017-12-30T13:09:58.107Z,74.69
2017-12-30T13:12:25.928Z,74.77
2017-12-30T13:14:53.827Z,75.66
2017-12-30T13:17:21.600Z,75.89
2017-12-30T13:19:49.336Z,77.19
2017-12-30T13:22:17.083Z,78.27
2017-12-30T13:24:44.938Z,78.43
2017-12-30T13:27:12.814Z,77.99
2017-12-30T13:29:40.589Z,77.96
2017-12-30T13:32:08.376Z,77.92
2017-12-30T13:34:36.131Z,78.53
2017-12-30T13:37:03.940Z,77.87
2017-12-30T13:39:31.802Z,78.47
2017-12-30T13:41:59.640Z,78.25
2017-12-30T13:44:27.463Z,78.78
2017-12-30T13:46:55.205Z,78.82
2017-12-30T13:49:23.005Z,80.45
2017-12-30T13:51:50.727Z,79.54
2017-12-30T13:54:18.485Z,79.39
2017-12-30T13:56:46.193Z,79.04
2017-12-30T13:59:14.032Z,79.58
2017-12-30T14:01:41.917Z,79.98
2017-12-30T14:04:09.666Z,79.57
2017-12-30T14:06:37.474Z,80.77
2017-12-30T14:09:05.333Z,80.91
2017-12-30T14:11:33.146Z,81.47
2017-12-30T14:14:00.931Z,82.48
2017-12-30T14:16:28.634Z,81.95
2017-12-30T14:18:56.403Z,81.95
2017-12-30T14:21:24.193Z,82.17
2017-12-30T14:23:51.911Z,81.99
2017-12-30T14:26:19.815Z,82.57
2017-12-30T14:28:47.611Z,83.43
2017-12-30T14:31:15.417Z,83.15
2017-12-30T14:33:43.180Z,83.84
2017-12-30T14:36:11.016Z,83.73
2017-12-30T14:38:38.828Z,83.64
2017-12-30T14:41:07.427Z,84.07
2017-12-30T14:43:35.360Z,84.22
2017-12-30T14:46:03.242Z,84.59
2017-12-30T14:48:31.145Z,84.80
2017-12-30T14:50:58.904Z,84.92
2017-12-30T14:53:26.693Z,85.46
2017-12-30T14:55:54.615Z,85.09
2017-12-30T14:58:23.687Z,85.22
2017-12-30T15:00:51.507Z,84.26
2017-12-30T15:03:20.052Z,83.05
2017-12-30T15:05:47.902Z,84.96
2017-12-30T15:08:15.722Z,84.79
2017-12-30T15:10:43.688Z,83.83
2017-12-30T15:13:11.417Z,84.96
2017-12-30T15:15:39.222Z,84.51
2017-12-30T15:18:06.920Z,85.58
2017-12-30T15:20:34.719Z,88.81
2017-12-30T15:23:02.500Z,88.23
2017-12-30T15:25:30.302Z,86.85
2017-12-30T15:27:58.105Z,86.67
2017-12-30T15:30:25.857Z,86.36
2017-12-30T15:32:53.769Z,87.03
2017-12-30T15:35:21.512Z,88.78
2017-12-30T15:37:49.312Z,88.79
2017-12-30T15:40:17.104Z,89.48
2017-12-30T15:42:44.893Z,89.20
2017-12-30T15:45:13.426Z,89.33
2017-12-30T15:47:41.185Z,89.26
2017-12-30T15:50:11.736Z,87.93
2017-12-30T15:52:39.529Z,86.52
2017-12-30T15:55:07.241Z,87.36
2017-12-30T15:57:35.084Z,90.15
2017-12-30T16:00:02.900Z,90.09
2017-12-30T16:02:30.633Z,89.48
2017-12-30T16:04:58.457Z,88.65
2017-12-30T16:07:26.229Z,89.42
2017-12-30T16:09:54.050Z,88.82
2017-12-30T16:12:21.790Z,88.88
2017-12-30T16:14:49.566Z,88.37
2017-12-30T16:17:17.421Z,87.92
2017-12-30T16:19:45.238Z,88.09
2017-12-30T16:22:13.011Z,89.00
2017-12-30T16:24:40.902Z,90.60
2017-12-30T16:27:08.685Z,90.65
2017-12-30T16:29:36.670Z,90.17
2017-12-30T16:32:04.451Z,90.47
2017-12-30T16:34:32.227Z,90.10
2017-12-30T16:36:59.991Z,90.44
2017-12-30T16:39:27.795Z,90.75
2017-12-30T16:41:55.645Z,90.94
2017-12-30T16:44:24.276Z,90.23
2017-12-30T16:46:52.067Z,89.75
2017-12-30T16:49:19.878Z,88.81
2017-12-30T16:51:47.722Z,88.73
2017-12-30T16:54:15.487Z,88.15
2017-12-30T16:56:44.364Z,87.80
2017-12-30T16:59:12.156Z,88.24
2017-12-30T17:01:39.990Z,89.28
2017-12-30T17:04:08.019Z,89.56
2017-12-30T17:06:35.834Z,90.29
2017-12-30T17:09:04.715Z,89.94
2017-12-30T17:11:32.539Z,90.07
2017-12-30T17:14:00.278Z,90.04
2017-12-30T17:16:28.123Z,90.14
2017-12-30T17:18:55.916Z,89.71
2017-12-30T17:21:23.620Z,90.22
2017-12-30T17:23:51.403Z,89.49
2017-12-30T17:26:19.209Z,90.56
2017-12-30T17:28:46.937Z,91.23
2017-12-30T17:31:14.797Z,90.72
2017-12-30T17:33:42.687Z,90.77
2017-12-30T17:36:10.441Z,90.99
2017-12-30T17:38:38.282Z,91.35
2017-12-30T17:41:06.170Z,91.00
2017-12-30T17:43:34.315Z,91.56
2017-12-30T17:46:02.336Z,91.19
2017-12-30T17:48:30.212Z,90.98
2017-12-30T17:50:59.055Z,90.07
2017-12-30T17:53:27.456Z,89.65
2017-12-30T17:55:57.020Z,89.14
2017-12-30T17:58:24.861Z,89.82
2017-12-30T18:00:52.954Z,91.33
2017-12-30T18:03:20.998Z,91.23
2017-12-30T18:07:53.310Z,91.19
2017-12-30T18:10:21.419Z,90.88
2017-12-30T18:12:49.699Z,90.98
2017-12-30T18:15:18.865Z,90.75
2017-12-30T18:17:47.961Z,90.08
2017-12-30T18:20:15.847Z,90.06
2017-12-30T18:22:43.657Z,90.08
2017-12-30T18:25:11.604Z,90.01
2017-12-30T18:27:39.404Z,90.22
2017-12-30T18:30:07.314Z,91.07
2017-12-30T18:32:35.289Z,91.33
2017-12-30T18:35:03.237Z,91.10
2017-12-30T18:37:31.087Z,90.69
2017-12-30T18:39:58.939Z,90.19
2017-12-30T18:42:26.784Z,89.79
2017-12-30T18:44:55.673Z,89.59
2017-12-30T18:47:23.594Z,89.28
2017-12-30T18:49:52.880Z,89.39
2017-12-30T18:52:23.011Z,89.92
2017-12-30T18:54:51.054Z,89.46
2017-12-30T18:57:19.160Z,89.74
2017-12-30T18:59:47.016Z,89.82
2017-12-30T19:02:15.696Z,91.17
2017-12-30T19:04:43.605Z,91.93
2017-12-30T19:07:11.430Z,92.12
2017-12-30T19:09:40.191Z,92.66
2017-12-30T19:12:08.203Z,92.71
2017-12-30T19:14:36.052Z,92.48
2017-12-30T19:17:04.141Z,92.05
2017-12-30T19:19:32.139Z,92.13
2017-12-30T19:22:00.009Z,91.73
2017-12-30T19:24:27.788Z,91.30
2017-12-30T19:26:55.642Z,90.23
2017-12-30T19:29:23.400Z,90.74
2017-12-30T19:31:51.169Z,90.45
2017-12-30T19:34:19.075Z,92.16
2017-12-30T19:36:47.059Z,92.86
2017-12-30T19:39:15.376Z,92.82
2017-12-30T19:41:43.943Z,92.56
2017-12-30T19:44:11.767Z,91.80
2017-12-30T19:46:39.578Z,92.03
2017-12-30T19:49:07.542Z,91.17
2017-12-30T19:51:35.459Z,90.85
2017-12-30T19:54:03.528Z,91.15
2017-12-30T19:56:31.827Z,92.37
2017-12-30T19:58:59.649Z,93.33
2017-12-30T20:01:27.587Z,93.28
2017-12-30T20:03:55.437Z,93.24
2017-12-30T20:06:24.156Z,92.85
2017-12-30T20:08:52.067Z,93.30
2017-12-30T20:11:20.297Z,93.24
2017-12-30T20:13:49.002Z,92.77
2017-12-30T20:16:16.848Z,93.47
2017-12-30T20:18:44.690Z,93.43
2017-12-30T20:21:12.706Z,93.13
2017-12-30T20:23:40.574Z,93.05
2017-12-30T20:26:09.501Z,93.25
2017-12-30T20:28:37.360Z,92.90
2017-12-30T20:31:05.216Z,93.10
2017-12-30T20:33:34.343Z,93.55
2017-12-30T20:36:02.149Z,93.34
2017-12-30T20:38:30.404Z,92.79
2017-12-30T20:40:58.298Z,93.01
2017-12-30T20:43:26.120Z,93.49
2017-12-30T20:45:54.919Z,93.05
2017-12-30T20:48:22.742Z,92.74
2017-12-30T20:50:50.984Z,93.34
2017-12-30T20:53:20.010Z,93.18
2017-12-30T20:55:47.809Z,93.26
2017-12-30T20:58:15.622Z,93.60
2017-12-30T21:00:44.210Z,93.22
2017-12-30T21:03:12.247Z,92.89
2017-12-30T21:05:40.054Z,93.45
2017-12-30T21:08:07.897Z,93.91
2017-12-30T21:10:36.539Z,93.96
2017-12-30T21:13:04.781Z,93.88
2017-12-30T21:15:32.670Z,93.73
2017-12-30T21:18:00.709Z,93.71
2017-12-30T21:20:29.511Z,93.52
2017-12-30T21:22:57.629Z,93.56
2017-12-30T21:25:25.623Z,93.74
2017-12-30T21:27:53.430Z,93.73
2017-12-30T21:30:21.294Z,93.76
2017-12-30T21:32:49.134Z,93.34
2017-12-30T21:35:16.984Z,93.17
2017-12-30T21:37:44.819Z,93.10
2017-12-30T21:40:12.660Z,92.71
2017-12-30T21:42:40.610Z,92.51
2017-12-30T21:45:09.723Z,92.49
2017-12-30T21:47:37.919Z,92.91
2017-12-30T21:50:05.715Z,92.74
2017-12-30T21:52:33.706Z,92.45
2017-12-30T21:55:01.539Z,92.18
2017-12-30T21:57:29.335Z,92.06
2017-12-30T21:59:57.135Z,92.29
2017-12-30T22:02:25.011Z,92.02
2017-12-30T22:04:53.549Z,91.88
2017-12-30T22:07:21.901Z,92.15
2017-12-30T22:09:49.756Z,92.62
2017-12-30T22:12:17.703Z,93.51
2017-12-30T22:14:45.690Z,93.32
2017-12-30T22:17:14.726Z,93.09
2017-12-30T22:19:42.740Z,92.82
2017-12-30T22:22:10.811Z,92.83
2017-12-30T22:24:38.682Z,92.95
2017-12-30T22:27:06.598Z,92.72
2017-12-30T22:29:34.429Z,92.22
2017-12-30T22:32:02.384Z,91.84
2017-12-30T22:34:30.522Z,91.92
2017-12-30T22:36:58.267Z,93.34
2017-12-30T22:39:25.964Z,94.01
2017-12-30T22:41:53.955Z,94.00
2017-12-30T22:44:21.783Z,93.93
2017-12-30T22:46:49.490Z,94.20
2017-12-30T22:49:17.263Z,94.15
2017-12-30T22:51:44.971Z,93.95
2017-12-30T22:54:12.696Z,93.61
2017-12-30T22:56:40.673Z,93.28
2017-12-30T22:59:08.661Z,92.81
2017-12-30T23:01:36.525Z,93.74
2017-12-30T23:04:05.016Z,94.32
2017-12-30T23:06:32.854Z,94.29
2017-12-30T23:09:00.794Z,94.44
2017-12-30T23:11:29.412Z,94.38
2017-12-30T23:13:57.352Z,94.39
2017-12-30T23:16:25.236Z,94.16
2017-12-30T23:18:53.179Z,94.19
2017-12-30T23:21:20.976Z,94.30
2017-12-30T23:23:49.028Z,94.57
2017-12-30T23:26:16.707Z,94.78
2017-12-30T23:28:44.513Z,94.55
2017-12-30T23:31:12.514Z,94.41
2017-12-30T23:33:40.608Z,94.69
2017-12-30T23:36:08.357Z,94.72
2017-12-30T23:38:36.113Z,94.55
2017-12-30T23:41:03.815Z,94.81
2017-12-30T23:43:31.646Z,95.06
2017-12-30T23:45:59.563Z,94.75
2017-12-30T23:48:29.652Z,94.18
2017-12-30T23:50:57.544Z,93.83
2017-12-30T23:53:25.378Z,94.14
2017-12-30T23:55:53.199Z,94.05
2017-12-30T23:58:20.981Z,93.87
